createdAt,value
2019-04-26T00:01:23.575Z,1.92
2019-04-26T00:03:53.686Z,3.47
2019-04-26T00:06:24.096Z,1.50
2019-04-26T00:09:07.809Z,3.60
2019-04-26T00:12:14.404Z,1.80
2019-04-26T00:14:55.755Z,3.98
2019-04-26T00:17:35.371Z,2.45
2019-04-26T00:20:06.043Z,2.70
2019-04-26T00:22:36.439Z,3.62
2019-04-26T00:25:06.752Z,2.40
2019-04-26T00:27:38.113Z,2.25
2019-04-26T00:30:08.147Z,1.70
2019-04-26T00:32:38.459Z,1.98
2019-04-26T00:35:09.498Z,3.70
2019-04-26T00:37:39.542Z,2.33
2019-04-26T00:40:09.932Z,3.22
2019-04-26T00:42:40.001Z,3.45
2019-04-26T00:45:10.037Z,1.70
2019-04-26T00:47:41.373Z,3.15
2019-04-26T00:50:11.354Z,2.42
2019-04-26T00:52:43.028Z,3.72
2019-04-26T00:55:14.165Z,2.22
2019-04-26T00:57:45.471Z,3.13
2019-04-26T01:00:18.119Z,3.55
2019-04-26T01:02:51.698Z,1.62
2019-04-26T01:05:21.662Z,2.77
2019-04-26T01:07:53.801Z,3.13
2019-04-26T01:10:23.861Z,2.90
2019-04-26T01:12:54.886Z,3.20
2019-04-26T01:15:24.857Z,1.65
2019-04-26T01:17:54.891Z,2.25
2019-04-26T01:20:28.176Z,2.33
2019-04-26T01:23:01.105Z,2.15
2019-04-26T01:26:02.065Z,3.27
2019-04-26T01:28:41.949Z,5.20
2019-04-26T01:31:12.515Z,2.73
2019-04-26T01:33:44.167Z,2.27
2019-04-26T01:36:15.150Z,2.22
2019-04-26T01:38:48.261Z,3.97
2019-04-26T01:41:28.194Z,2.40
2019-04-26T01:44:07.921Z,2.70
2019-04-26T01:46:45.037Z,3.10
2019-04-26T01:49:17.426Z,2.60
2019-04-26T01:51:53.050Z,1.90
2019-04-26T01:54:26.254Z,2.40
2019-04-26T01:56:59.973Z,3.93
2019-04-26T01:59:30.034Z,3.23
2019-04-26T02:02:18.096Z,2.40
2019-04-26T02:04:50.239Z,2.87
2019-04-26T02:07:38.822Z,5.00
2019-04-26T02:10:10.557Z,3.87
2019-04-26T02:12:44.484Z,2.40
2019-04-26T02:15:17.669Z,3.80
2019-04-26T02:17:50.066Z,2.70
2019-04-26T02:20:45.378Z,3.73
2019-04-26T02:23:21.748Z,3.83
2019-04-26T02:25:51.752Z,3.60
2019-04-26T02:28:22.677Z,3.57
2019-04-26T02:30:52.755Z,3.17
2019-04-26T02:33:23.278Z,3.50
2019-04-26T02:35:53.223Z,3.57
2019-04-26T02:38:23.201Z,3.40
2019-04-26T02:40:53.557Z,3.93
2019-04-26T02:43:26.439Z,2.53
2019-04-26T02:46:13.428Z,3.50
2019-04-26T02:49:18.329Z,4.20
2019-04-26T02:52:03.651Z,4.83
2019-04-26T02:54:46.522Z,3.90
2019-04-26T02:57:23.541Z,6.30
2019-04-26T03:00:00.198Z,5.90
2019-04-26T03:02:32.283Z,6.17
2019-04-26T03:05:05.649Z,8.53
2019-04-26T03:07:54.978Z,5.30
2019-04-26T03:10:38.642Z,6.07
2019-04-26T03:13:14.238Z,6.93
2019-04-26T03:15:59.307Z,6.37
2019-04-26T03:18:49.770Z,6.63
2019-04-26T03:21:34.122Z,9.67
2019-04-26T03:24:12.659Z,7.13
2019-04-26T03:26:49.131Z,9.43
2019-04-26T03:29:25.626Z,9.83
2019-04-26T03:32:17.431Z,8.10
2019-04-26T03:34:58.476Z,14.57
2019-04-26T03:38:18.601Z,12.23
2019-04-26T03:41:02.106Z,16.80
2019-04-26T03:43:57.093Z,19.13
2019-04-26T03:46:45.350Z,18.60
2019-04-26T03:49:30.755Z,19.63
2019-04-26T03:52:39.688Z,21.40
2019-04-26T03:55:48.344Z,21.83
2019-04-26T03:58:25.831Z,26.87
2019-04-26T04:01:01.311Z,22.63
2019-04-26T04:03:52.657Z,24.83
2019-04-26T04:06:28.735Z,24.37
2019-04-26T04:09:05.241Z,21.23
2019-04-26T04:11:43.124Z,24.70
2019-04-26T04:14:22.432Z,24.57
2019-04-26T04:17:22.019Z,25.83
2019-04-26T04:20:52.463Z,27.23
2019-04-26T04:24:02.687Z,24.80
2019-04-26T04:27:02.049Z,26.63
2019-04-26T04:29:58.399Z,28.47
2019-04-26T04:32:58.515Z,26.57
2019-04-26T04:35:31.749Z,31.40
2019-04-26T04:38:10.095Z,27.10
2019-04-26T04:41:26.441Z,30.73
2019-04-26T04:44:07.670Z,29.23
2019-04-26T04:47:24.588Z,25.67
2019-04-26T04:50:04.798Z,30.03
2019-04-26T04:53:15.690Z,30.63
2019-04-26T04:56:29.170Z,34.40
2019-04-26T04:59:02.687Z,28.10
2019-04-26T05:01:57.291Z,29.20
2019-04-26T05:04:42.578Z,29.97
2019-04-26T05:07:26.701Z,35.03
2019-04-26T05:10:14.696Z,28.17
2019-04-26T05:13:07.947Z,28.33
2019-04-26T05:16:20.536Z,30.27
2019-04-26T05:19:36.692Z,28.03
2019-04-26T05:22:35.193Z,33.00
2019-04-26T05:25:56.871Z,27.90
2019-04-26T05:28:39.359Z,28.33
2019-04-26T05:31:32.088Z,26.17
2019-04-26T05:34:47.433Z,25.03
2019-04-26T05:37:41.069Z,24.33
2019-04-26T05:40:43.071Z,26.80
2019-04-26T05:43:49.176Z,27.37
2019-04-26T05:47:02.264Z,26.37
2019-04-26T05:50:33.651Z,27.17
2019-04-26T05:53:52.875Z,23.57
2019-04-26T05:56:40.629Z,25.90
2019-04-26T05:59:55.011Z,25.33
2019-04-26T06:03:14.031Z,24.33
2019-04-26T06:06:22.877Z,24.60
2019-04-26T06:09:30.306Z,24.53
2019-04-26T06:12:12.502Z,24.27
2019-04-26T06:15:04.095Z,26.30
2019-04-26T06:18:03.174Z,23.83
2019-04-26T06:20:51.174Z,21.50
2019-04-26T06:23:54.352Z,21.70
2019-04-26T06:26:54.298Z,23.27
2019-04-26T06:29:41.500Z,20.97
2019-04-26T06:32:30.236Z,19.47
2019-04-26T06:35:09.137Z,21.80
2019-04-26T06:37:54.010Z,20.07
2019-04-26T06:40:49.588Z,22.17
2019-04-26T06:43:29.996Z,20.03
2019-04-26T06:46:36.588Z,20.37
2019-04-26T06:49:55.214Z,25.20
2019-04-26T06:52:27.938Z,22.40
2019-04-26T06:55:39.770Z,23.17
2019-04-26T06:58:37.298Z,28.00
2019-04-26T07:01:25.384Z,22.40
2019-04-26T07:04:59.156Z,24.10
2019-04-26T07:08:07.118Z,21.03
2019-04-26T07:11:23.906Z,23.70
2019-04-26T07:14:22.057Z,22.80
2019-04-26T07:17:06.506Z,19.45
2019-04-26T07:20:06.067Z,20.47
2019-04-26T07:23:08.918Z,20.00
2019-04-26T07:26:16.735Z,20.63
2019-04-26T07:29:31.421Z,22.60
2019-04-26T07:32:14.533Z,16.40
2019-04-26T07:35:04.747Z,18.67
2019-04-26T07:38:12.574Z,20.47
2019-04-26T07:41:23.936Z,17.17
2019-04-26T07:44:34.883Z,19.90
2019-04-26T07:48:15.248Z,15.70
2019-04-26T07:51:46.588Z,15.40
2019-04-26T07:55:04.488Z,15.03
2019-04-26T07:58:13.918Z,13.97
2019-04-26T08:00:53.133Z,13.43
2019-04-26T08:03:36.247Z,15.20
2019-04-26T08:06:17.040Z,12.80
2019-04-26T08:08:58.079Z,13.70
2019-04-26T08:11:37.440Z,11.47
2019-04-26T08:14:15.665Z,11.53
2019-04-26T08:17:30.239Z,10.85
2019-04-26T08:20:28.144Z,15.50
2019-04-26T08:23:02.775Z,14.33
2019-04-26T08:25:36.471Z,13.10
2019-04-26T08:28:09.896Z,14.73
2019-04-26T08:30:46.242Z,13.93
2019-04-26T08:33:21.095Z,14.40
2019-04-26T08:35:53.497Z,16.70
2019-04-26T08:38:24.804Z,17.20
2019-04-26T08:40:55.761Z,16.43
2019-04-26T08:43:50.248Z,15.60
2019-04-26T08:46:38.026Z,19.70
2019-04-26T08:49:13.886Z,19.90
2019-04-26T08:51:45.167Z,18.60
2019-04-26T08:54:21.826Z,19.67
2019-04-26T08:57:02.493Z,19.63
2019-04-26T08:59:37.510Z,22.60
2019-04-26T09:02:32.556Z,20.80
2019-04-26T09:05:22.678Z,19.00
2019-04-26T09:07:57.617Z,19.60
2019-04-26T09:10:28.773Z,20.63
2019-04-26T09:13:01.554Z,16.70
2019-04-26T09:16:04.139Z,19.97
2019-04-26T09:18:42.904Z,18.23
2019-04-26T09:21:06.509Z,19.43
2019-04-26T09:23:54.403Z,18.40
2019-04-26T09:26:32.380Z,18.77
2019-04-26T09:29:30.303Z,18.87
2019-04-26T09:32:09.207Z,21.67
2019-04-26T09:34:41.228Z,20.10
2019-04-26T09:37:11.236Z,18.07
2019-04-26T09:39:42.100Z,17.83
2019-04-26T09:42:39.710Z,17.37
2019-04-26T09:45:24.317Z,20.83
2019-04-26T09:47:59.497Z,19.03
2019-04-26T09:50:37.610Z,20.13
2019-04-26T09:53:07.524Z,16.70
2019-04-26T09:55:37.517Z,18.53
2019-04-26T09:58:08.734Z,17.40
2019-04-26T10:00:39.445Z,18.03
2019-04-26T10:03:10.943Z,16.67
2019-04-26T10:05:42.021Z,16.83
2019-04-26T10:08:12.796Z,14.40
2019-04-26T10:10:43.689Z,13.90
2019-04-26T10:13:44.553Z,13.03
2019-04-26T10:16:33.611Z,14.20
2019-04-26T10:19:09.626Z,13.57
2019-04-26T10:21:39.674Z,13.20
2019-04-26T10:24:09.629Z,15.00
2019-04-26T10:26:39.866Z,14.80
2019-04-26T10:29:10.148Z,17.00
2019-04-26T10:31:40.334Z,15.90
2019-04-26T10:34:11.866Z,13.77
2019-04-26T10:36:41.915Z,14.00
2019-04-26T10:39:12.854Z,14.20
2019-04-26T10:41:43.290Z,12.97
2019-04-26T10:44:13.328Z,10.43
2019-04-26T10:46:54.998Z,13.57
2019-04-26T10:49:43.273Z,12.33
2019-04-26T10:52:21.097Z,12.77
2019-04-26T10:54:59.740Z,11.50
2019-04-26T10:57:35.410Z,9.33
2019-04-26T11:00:08.232Z,12.93
2019-04-26T11:02:38.641Z,12.40
2019-04-26T11:05:11.615Z,13.77
2019-04-26T11:07:41.094Z,12.37
2019-04-26T11:10:11.354Z,13.23
2019-04-26T11:12:43.469Z,13.07
2019-04-26T11:15:14.452Z,12.37
2019-04-26T11:17:46.015Z,14.87
2019-04-26T11:20:16.129Z,16.20
2019-04-26T11:22:46.330Z,16.03
2019-04-26T11:25:16.366Z,13.47
2019-04-26T11:27:48.543Z,16.50
2019-04-26T11:30:20.806Z,15.40
2019-04-26T11:32:50.051Z,15.87
2019-04-26T11:35:20.207Z,14.37
2019-04-26T11:37:50.740Z,15.53
2019-04-26T11:40:21.954Z,14.93
2019-04-26T11:42:51.915Z,16.57
2019-04-26T11:45:22.204Z,16.60
2019-04-26T11:47:56.352Z,15.00
2019-04-26T11:50:23.784Z,16.80
2019-04-26T11:52:54.261Z,18.10
2019-04-26T11:55:25.298Z,15.70
2019-04-26T11:57:55.940Z,18.50
2019-04-26T12:00:34.104Z,18.77
2019-04-26T12:03:04.468Z,17.30
2019-04-26T12:05:47.410Z,23.07
2019-04-26T12:08:21.854Z,22.57
2019-04-26T12:10:51.873Z,24.32
2019-04-26T12:13:25.031Z,21.50
2019-04-26T12:15:54.019Z,26.43
2019-04-26T12:18:24.093Z,28.15
2019-04-26T12:20:57.177Z,32.00
2019-04-26T12:23:26.720Z,36.63
2019-04-26T12:25:56.606Z,36.77
2019-04-26T12:28:26.959Z,34.83
2019-04-26T12:30:58.448Z,35.85
2019-04-26T12:33:28.789Z,43.30
2019-04-26T12:35:58.670Z,40.10
2019-04-26T12:38:30.078Z,42.73
2019-04-26T12:41:00.505Z,43.60
2019-04-26T12:43:30.369Z,44.93
2019-04-26T12:46:22.754Z,46.53
2019-04-26T12:48:51.410Z,40.60
2019-04-26T12:51:21.490Z,45.10
2019-04-26T12:53:51.684Z,42.33
2019-04-26T12:56:21.720Z,46.87
2019-04-26T12:58:51.623Z,43.98
2019-04-26T13:01:21.568Z,44.08
2019-04-26T13:04:04.848Z,44.70
2019-04-26T13:06:37.692Z,44.03
2019-04-26T13:09:14.895Z,49.08
2019-04-26T13:12:19.161Z,46.07
2019-04-26T13:15:03.861Z,50.03
2019-04-26T13:17:46.216Z,47.70
2019-04-26T13:20:16.263Z,53.33
2019-04-26T13:22:49.997Z,51.20
2019-04-26T13:25:26.318Z,51.10
2019-04-26T13:27:49.704Z,55.13
2019-04-26T13:30:32.274Z,57.93
2019-04-26T13:32:53.339Z,57.60
2019-04-26T13:35:23.206Z,59.13
2019-04-26T13:37:53.223Z,63.93
2019-04-26T13:40:25.674Z,56.97
2019-04-26T13:42:55.138Z,55.80
2019-04-26T13:45:33.473Z,54.03
2019-04-26T13:48:21.566Z,57.07
2019-04-26T13:50:57.317Z,57.67
2019-04-26T13:53:28.322Z,52.60
2019-04-26T13:56:01.479Z,59.80
2019-04-26T13:58:29.939Z,59.50
2019-04-26T14:01:00.046Z,54.93
2019-04-26T14:03:31.559Z,65.93
2019-04-26T14:06:01.666Z,55.00
2019-04-26T14:08:31.643Z,56.70
2019-04-26T14:11:01.613Z,54.20
2019-04-26T14:13:31.818Z,58.20
2019-04-26T14:16:02.120Z,51.17
2019-04-26T14:18:34.535Z,52.07
2019-04-26T14:21:04.067Z,54.60
2019-04-26T14:23:45.388Z,55.05
2019-04-26T14:26:15.961Z,58.13
2019-04-26T14:28:45.846Z,56.57
2019-04-26T14:31:18.138Z,52.57
2019-04-26T14:33:48.292Z,57.33
2019-04-26T14:36:18.649Z,55.50
2019-04-26T14:38:49.076Z,53.93
2019-04-26T14:41:22.570Z,56.43
2019-04-26T14:43:52.673Z,57.33
2019-04-26T14:46:23.037Z,61.70
2019-04-26T14:49:01.427Z,60.93
2019-04-26T14:51:24.603Z,59.93
2019-04-26T14:53:54.594Z,62.87
2019-04-26T14:56:29.144Z,65.45
2019-04-26T14:58:56.568Z,65.27
2019-04-26T15:01:40.181Z,61.80
2019-04-26T15:04:29.081Z,67.97
2019-04-26T15:06:59.720Z,64.67
2019-04-26T15:09:33.262Z,60.83
2019-04-26T15:12:03.468Z,65.30
2019-04-26T15:14:33.325Z,66.63
2019-04-26T15:17:03.487Z,66.63
2019-04-26T15:19:35.126Z,70.57
2019-04-26T15:22:10.282Z,66.73
2019-04-26T15:24:38.648Z,64.60
2019-04-26T15:27:08.408Z,63.30
2019-04-26T15:29:38.374Z,59.80
2019-04-26T15:32:08.401Z,68.62
2019-04-26T15:34:38.631Z,59.05
2019-04-26T15:37:08.443Z,63.35
2019-04-26T15:39:56.830Z,57.33
2019-04-26T15:42:43.154Z,59.03
2019-04-26T15:45:26.326Z,58.35
2019-04-26T15:48:08.222Z,57.08
2019-04-26T15:50:48.448Z,58.13
2019-04-26T15:53:14.689Z,58.27
2019-04-26T15:55:44.816Z,51.80
2019-04-26T15:58:14.770Z,54.93
2019-04-26T16:00:45.052Z,55.90
2019-04-26T16:03:15.989Z,52.77
2019-04-26T16:05:46.981Z,58.27
2019-04-26T16:08:17.071Z,55.17
2019-04-26T16:10:47.495Z,53.47
2019-04-26T16:13:21.093Z,59.33
2019-04-26T16:15:49.738Z,53.20
2019-04-26T16:18:19.800Z,51.17
2019-04-26T16:20:49.937Z,55.50
2019-04-26T16:23:19.981Z,54.87
2019-04-26T16:25:49.922Z,57.90
2019-04-26T16:28:49.125Z,50.38
2019-04-26T16:31:37.399Z,51.10
2019-04-26T16:34:11.659Z,49.93
2019-04-26T16:36:50.575Z,50.17
2019-04-26T16:39:20.453Z,50.15
2019-04-26T16:41:50.342Z,49.13
2019-04-26T16:44:28.218Z,49.83
2019-04-26T16:47:01.066Z,51.05
2019-04-26T16:49:23.938Z,45.00
2019-04-26T16:52:02.133Z,48.98
2019-04-26T16:54:26.834Z,49.93
2019-04-26T16:56:58.993Z,44.90
2019-04-26T16:59:29.162Z,49.30
2019-04-26T17:02:02.362Z,53.00
2019-04-26T17:04:32.432Z,50.40
2019-04-26T17:07:04.960Z,44.90
2019-04-26T17:09:54.758Z,48.55
2019-04-26T17:12:06.128Z,44.58
2019-04-26T17:14:40.466Z,48.50
2019-04-26T17:17:10.780Z,49.98
2019-04-26T17:19:40.367Z,48.53
2019-04-26T17:22:23.330Z,45.78
2019-04-26T17:25:12.707Z,47.90
2019-04-26T17:27:45.947Z,48.47
2019-04-26T17:30:17.469Z,49.07
2019-04-26T17:32:51.659Z,47.95
2019-04-26T17:35:19.628Z,56.05
2019-04-26T17:37:50.216Z,51.35
2019-04-26T17:40:25.142Z,53.77
2019-04-26T17:42:52.283Z,54.42
2019-04-26T17:45:22.254Z,54.47
2019-04-26T17:47:52.997Z,52.33
2019-04-26T17:50:24.432Z,52.83
2019-04-26T17:52:54.730Z,52.33
2019-04-26T17:55:25.175Z,48.08
2019-04-26T17:58:09.620Z,51.55
2019-04-26T18:00:28.887Z,53.13
2019-04-26T18:02:58.528Z,52.90
2019-04-26T18:05:44.995Z,53.77
2019-04-26T18:08:30.580Z,54.70
2019-04-26T18:10:35.532Z,55.80
2019-04-26T18:13:04.366Z,49.20
2019-04-26T18:15:35.587Z,57.73
2019-04-26T18:18:29.266Z,51.47
2019-04-26T18:21:20.374Z,50.47
2019-04-26T18:23:54.626Z,52.87
2019-04-26T18:26:22.428Z,50.27
2019-04-26T18:28:55.094Z,50.40
2019-04-26T18:31:28.934Z,49.70
2019-04-26T18:34:00.555Z,54.67
2019-04-26T18:36:32.053Z,49.40
2019-04-26T18:38:59.871Z,53.30
2019-04-26T18:41:30.033Z,50.07
2019-04-26T18:44:00.873Z,52.17
2019-04-26T18:46:53.569Z,51.80
2019-04-26T18:49:26.997Z,52.17
2019-04-26T18:51:56.012Z,51.00
2019-04-26T18:54:38.098Z,53.87
2019-04-26T18:57:09.486Z,51.00
2019-04-26T18:59:39.702Z,47.43
2019-04-26T19:02:11.402Z,46.70
2019-04-26T19:04:48.056Z,46.03
2019-04-26T19:07:15.990Z,44.63
2019-04-26T19:09:58.978Z,51.35
2019-04-26T19:12:22.308Z,50.67
2019-04-26T19:15:12.446Z,51.77
2019-04-26T19:18:04.345Z,54.98
2019-04-26T19:20:40.747Z,52.10
2019-04-26T19:23:12.168Z,48.97
2019-04-26T19:25:42.388Z,47.87
2019-04-26T19:28:12.512Z,50.83
2019-04-26T19:30:49.063Z,52.23
2019-04-26T19:33:16.872Z,54.77
2019-04-26T19:35:47.544Z,52.43
2019-04-26T19:38:18.790Z,59.40
2019-04-26T19:40:48.828Z,52.17
2019-04-26T19:43:30.418Z,51.90
2019-04-26T19:46:12.898Z,49.70
2019-04-26T19:48:56.552Z,50.93
2019-04-26T19:51:45.782Z,56.07
2019-04-26T19:54:36.849Z,51.10
2019-04-26T19:57:06.205Z,53.43
2019-04-26T19:59:36.212Z,52.90
2019-04-26T20:02:06.374Z,53.17
2019-04-26T20:04:36.431Z,50.70
2019-04-26T20:07:06.691Z,52.93
2019-04-26T20:09:36.773Z,54.77
2019-04-26T20:12:06.990Z,49.30
2019-04-26T20:14:47.199Z,49.73
2019-04-26T20:17:12.692Z,53.33
2019-04-26T20:19:42.318Z,54.87
2019-04-26T20:22:12.620Z,53.65
2019-04-26T20:24:43.007Z,49.20
2019-04-26T20:27:15.581Z,57.63
2019-04-26T20:29:47.540Z,53.43
2019-04-26T20:32:26.644Z,49.33
2019-04-26T20:35:06.969Z,53.50
2019-04-26T20:37:37.007Z,53.53
2019-04-26T20:40:18.664Z,52.77
2019-04-26T20:42:39.119Z,50.13
2019-04-26T20:45:11.460Z,54.93
2019-04-26T20:47:41.637Z,51.23
2019-04-26T20:50:12.002Z,50.60
2019-04-26T20:52:45.418Z,52.23
2019-04-26T20:55:15.134Z,48.67
2019-04-26T20:57:45.374Z,53.87
2019-04-26T21:00:15.496Z,49.43
2019-04-26T21:02:45.718Z,52.77
2019-04-26T21:05:15.860Z,54.83
2019-04-26T21:07:49.821Z,50.67
2019-04-26T21:10:21.921Z,50.47
2019-04-26T21:12:52.068Z,48.43
2019-04-26T21:15:24.019Z,50.20
2019-04-26T21:17:56.731Z,55.03
2019-04-26T21:20:27.648Z,51.77
2019-04-26T21:22:57.723Z,50.90
2019-04-26T21:25:38.030Z,54.60
2019-04-26T21:28:16.581Z,47.87
2019-04-26T21:30:55.234Z,55.20
2019-04-26T21:33:44.123Z,50.47
2019-04-26T21:36:34.703Z,58.00
2019-04-26T21:39:33.830Z,50.67
2019-04-26T21:42:04.212Z,57.17
2019-04-26T21:44:35.490Z,53.23
2019-04-26T21:47:05.746Z,52.13
2019-04-26T21:49:38.067Z,51.17
2019-04-26T21:52:07.610Z,51.47
2019-04-26T21:54:37.586Z,54.73
2019-04-26T21:57:07.492Z,48.17
2019-04-26T21:59:40.855Z,47.00
2019-04-26T22:02:09.245Z,49.97
2019-04-26T22:04:39.226Z,48.27
2019-04-26T22:07:09.435Z,48.23
2019-04-26T22:09:50.105Z,47.83
2019-04-26T22:12:20.678Z,48.10
2019-04-26T22:15:00.688Z,47.93
2019-04-26T22:17:36.287Z,56.30
2019-04-26T22:20:27.837Z,49.50
2019-04-26T22:23:16.527Z,52.10
2019-04-26T22:25:49.549Z,49.17
2019-04-26T22:28:19.450Z,48.07
2019-04-26T22:30:49.552Z,51.77
2019-04-26T22:33:20.213Z,52.43
2019-04-26T22:35:50.453Z,54.87
2019-04-26T22:38:26.579Z,52.77
2019-04-26T22:40:56.144Z,46.47
2019-04-26T22:43:54.016Z,52.90
2019-04-26T22:46:47.048Z,50.97
2019-04-26T22:49:13.212Z,47.33
2019-04-26T22:51:43.662Z,47.90
2019-04-26T22:54:14.007Z,51.73
2019-04-26T22:56:46.007Z,52.87
2019-04-26T22:59:15.475Z,51.10
2019-04-26T23:01:48.709Z,50.03
2019-04-26T23:04:23.727Z,48.77
2019-04-26T23:06:48.971Z,48.23
2019-04-26T23:09:20.807Z,52.37
2019-04-26T23:11:57.439Z,50.80
2019-04-26T23:14:55.169Z,53.37
2019-04-26T23:17:44.003Z,52.83
2019-04-26T23:20:18.686Z,53.00
2019-04-26T23:22:48.577Z,49.67
2019-04-26T23:25:18.510Z,51.83
2019-04-26T23:27:50.470Z,55.67
2019-04-26T23:30:20.373Z,51.07
2019-04-26T23:32:52.192Z,48.20
2019-04-26T23:35:22.049Z,47.53
2019-04-26T23:37:52.015Z,51.93
2019-04-26T23:40:25.772Z,51.70
2019-04-26T23:42:54.474Z,48.17
2019-04-26T23:45:24.547Z,49.60
2019-04-26T23:47:54.831Z,48.27
2019-04-26T23:50:25.543Z,51.47
2019-04-26T23:52:56.537Z,54.73
2019-04-26T23:55:26.438Z,51.17
2019-04-26T23:57:56.849Z,50.50
